createdAt,value
2023-05-19T00:02:06.009Z,5.70
2023-05-19T00:04:33.695Z,5.85
2023-05-19T00:07:01.452Z,6.35
2023-05-19T00:09:28.465Z,6.47
2023-05-19T00:11:56.711Z,6.20
2023-05-19T00:14:23.620Z,6.53
2023-05-19T00:16:50.612Z,6.40
2023-05-19T00:19:17.744Z,7.60
2023-05-19T00:21:44.400Z,6.15
2023-05-19T00:24:11.303Z,6.35
2023-05-19T00:26:37.952Z,6.85
2023-05-19T00:29:05.128Z,6.07
2023-05-19T00:31:34.066Z,6.60
2023-05-19T00:34:00.958Z,6.50
2023-05-19T00:36:27.647Z,6.90
2023-05-19T00:38:54.378Z,7.50
2023-05-19T00:41:21.194Z,6.70
2023-05-19T00:43:47.896Z,6.85
2023-05-19T00:46:14.649Z,6.70
2023-05-19T00:48:41.818Z,6.97
2023-05-19T00:51:08.649Z,6.80
2023-05-19T00:53:35.791Z,7.40
2023-05-19T00:56:03.087Z,7.00
2023-05-19T00:58:31.241Z,6.45
2023-05-19T01:01:09.952Z,6.70
2023-05-19T01:03:37.247Z,7.60
2023-05-19T01:06:07.533Z,6.78
2023-05-19T01:08:35.803Z,7.03
2023-05-19T01:11:03.190Z,7.82
2023-05-19T01:13:30.593Z,6.20
2023-05-19T01:16:20.548Z,7.05
2023-05-19T01:19:10.979Z,6.95
2023-05-19T01:22:01.136Z,6.68
2023-05-19T01:24:33.968Z,6.30
2023-05-19T01:27:29.976Z,6.95
2023-05-19T01:30:15.558Z,7.70
2023-05-19T01:32:42.494Z,6.78
2023-05-19T01:35:10.422Z,6.65
2023-05-19T01:37:38.956Z,6.60
2023-05-19T01:40:07.972Z,6.45
2023-05-19T01:42:38.004Z,6.07
2023-05-19T01:45:10.680Z,7.35
2023-05-19T01:47:41.776Z,6.17
2023-05-19T01:50:08.988Z,5.95
2023-05-19T01:52:35.721Z,6.15
2023-05-19T01:55:02.362Z,6.60
2023-05-19T01:57:58.272Z,5.68
2023-05-19T02:00:54.324Z,6.00
2023-05-19T02:03:30.376Z,6.20
2023-05-19T02:06:29.281Z,5.68
2023-05-19T02:09:12.212Z,6.07
2023-05-19T02:11:46.268Z,5.70
2023-05-19T02:14:21.080Z,5.65
2023-05-19T02:16:49.075Z,6.78
2023-05-19T02:19:24.481Z,5.93
2023-05-19T02:21:51.297Z,5.95
2023-05-19T02:24:20.172Z,5.78
2023-05-19T02:26:46.841Z,5.35
2023-05-19T02:29:13.451Z,5.85
2023-05-19T02:31:40.166Z,5.90
2023-05-19T02:34:08.679Z,5.30
2023-05-19T02:36:36.864Z,6.25
2023-05-19T02:39:04.423Z,5.40
2023-05-19T02:41:31.567Z,5.47
2023-05-19T02:43:58.322Z,6.03
2023-05-19T02:46:24.957Z,6.60
2023-05-19T02:48:52.460Z,6.03
2023-05-19T02:51:19.058Z,5.68
2023-05-19T02:53:45.989Z,6.07
2023-05-19T02:56:12.586Z,6.15
2023-05-19T02:58:39.569Z,6.10
2023-05-19T03:01:06.182Z,6.75
2023-05-19T03:03:33.026Z,5.97
2023-05-19T03:05:59.681Z,6.15
2023-05-19T03:08:26.271Z,6.50
2023-05-19T03:10:52.850Z,6.07
2023-05-19T03:13:19.547Z,6.03
2023-05-19T03:15:46.186Z,6.05
2023-05-19T03:18:13.417Z,6.20
2023-05-19T03:20:42.524Z,7.35
2023-05-19T03:23:09.603Z,6.63
2023-05-19T03:25:36.470Z,7.00
2023-05-19T03:28:03.427Z,7.30
2023-05-19T03:30:30.160Z,7.20
2023-05-19T03:32:57.096Z,6.90
2023-05-19T03:35:23.833Z,6.90
2023-05-19T03:37:50.593Z,6.95
2023-05-19T03:40:18.884Z,7.30
2023-05-19T03:42:45.644Z,6.65
2023-05-19T03:45:12.297Z,6.22
2023-05-19T03:47:38.969Z,6.70
2023-05-19T03:50:06.322Z,7.35
2023-05-19T03:52:33.587Z,7.00
2023-05-19T03:55:00.228Z,6.75
2023-05-19T03:57:27.018Z,7.07
2023-05-19T03:59:53.696Z,7.57
2023-05-19T04:02:20.504Z,7.05
2023-05-19T04:04:47.215Z,7.18
2023-05-19T04:07:13.915Z,7.18
2023-05-19T04:09:40.584Z,7.70
2023-05-19T04:12:07.533Z,6.97
2023-05-19T04:14:34.171Z,7.60
2023-05-19T04:17:01.010Z,7.32
2023-05-19T04:19:27.822Z,7.80
2023-05-19T04:21:54.666Z,8.27
2023-05-19T04:24:21.280Z,7.45
2023-05-19T04:26:48.181Z,7.00
2023-05-19T04:29:17.980Z,6.88
2023-05-19T04:31:45.479Z,7.35
2023-05-19T04:34:12.276Z,7.45
2023-05-19T04:36:39.031Z,7.05
2023-05-19T04:39:10.160Z,8.00
2023-05-19T04:41:40.232Z,8.02
2023-05-19T04:44:09.656Z,8.68
2023-05-19T04:46:36.336Z,8.18
2023-05-19T04:49:03.220Z,8.38
2023-05-19T04:51:31.383Z,7.90
2023-05-19T04:53:58.284Z,7.70
2023-05-19T04:56:24.888Z,7.93
2023-05-19T04:58:53.608Z,8.48
2023-05-19T05:01:22.647Z,7.90
2023-05-19T05:03:49.459Z,7.78
2023-05-19T05:06:16.362Z,7.80
2023-05-19T05:08:43.035Z,7.68
2023-05-19T05:11:10.037Z,7.03
2023-05-19T05:13:36.912Z,6.63
2023-05-19T05:16:06.676Z,6.72
2023-05-19T05:18:34.811Z,7.05
2023-05-19T05:21:01.748Z,6.85
2023-05-19T05:23:28.687Z,6.55
2023-05-19T05:25:55.760Z,7.00
2023-05-19T05:28:22.602Z,6.20
2023-05-19T05:30:50.341Z,7.43
2023-05-19T05:33:18.288Z,6.47
2023-05-19T05:35:45.333Z,6.85
2023-05-19T05:38:11.958Z,6.57
2023-05-19T05:40:38.700Z,6.70
2023-05-19T05:43:05.347Z,6.55
2023-05-19T05:45:32.125Z,6.50
2023-05-19T05:47:59.305Z,6.38
2023-05-19T05:50:26.360Z,7.13
2023-05-19T05:52:53.968Z,6.93
2023-05-19T05:55:21.082Z,7.63
2023-05-19T05:57:48.772Z,6.55
2023-05-19T06:00:15.979Z,7.05
2023-05-19T06:02:47.465Z,7.10
2023-05-19T06:05:17.385Z,7.72
2023-05-19T06:07:44.132Z,7.93
2023-05-19T06:10:10.817Z,6.85
2023-05-19T06:12:40.811Z,7.45
2023-05-19T06:15:08.104Z,7.47
2023-05-19T06:17:38.117Z,7.30
2023-05-19T06:20:11.910Z,7.82
2023-05-19T06:22:38.652Z,7.28
2023-05-19T06:25:07.122Z,6.82
2023-05-19T06:27:34.823Z,7.50
2023-05-19T06:30:02.266Z,7.40
2023-05-19T06:32:30.013Z,7.88
2023-05-19T06:34:56.685Z,7.45
2023-05-19T06:37:23.795Z,8.25
2023-05-19T06:39:54.112Z,6.95
2023-05-19T06:42:22.700Z,6.80
2023-05-19T06:44:50.177Z,7.25
2023-05-19T06:47:17.700Z,7.95
2023-05-19T06:49:51.848Z,6.38
2023-05-19T06:52:18.471Z,6.80
2023-05-19T06:54:45.122Z,6.80
2023-05-19T06:57:11.962Z,6.82
2023-05-19T06:59:40.943Z,6.50
2023-05-19T07:02:07.949Z,6.97
2023-05-19T07:04:34.919Z,6.55
2023-05-19T07:07:01.585Z,6.53
2023-05-19T07:09:28.227Z,5.90
2023-05-19T07:11:56.416Z,6.72
2023-05-19T07:14:23.405Z,5.57
2023-05-19T07:16:50.161Z,5.65
2023-05-19T07:19:19.489Z,5.55
2023-05-19T07:21:46.970Z,5.35
2023-05-19T07:24:13.694Z,5.53
2023-05-19T07:26:40.564Z,6.18
2023-05-19T07:29:07.307Z,5.25
2023-05-19T07:31:34.082Z,5.75
2023-05-19T07:34:00.854Z,4.93
2023-05-19T07:36:27.678Z,5.00
2023-05-19T07:38:54.293Z,5.18
2023-05-19T07:41:21.853Z,4.65
2023-05-19T07:43:49.151Z,4.75
2023-05-19T07:46:16.036Z,5.28
2023-05-19T07:48:42.743Z,4.63
2023-05-19T07:51:10.352Z,4.60
2023-05-19T07:53:37.232Z,3.92
2023-05-19T07:56:04.194Z,4.30
2023-05-19T07:58:31.092Z,4.68
2023-05-19T08:00:59.017Z,4.07
2023-05-19T08:03:26.958Z,4.57
2023-05-19T08:05:53.761Z,4.07
2023-05-19T08:08:20.387Z,3.97
2023-05-19T08:10:47.009Z,4.68
2023-05-19T08:13:13.742Z,4.25
2023-05-19T08:15:41.174Z,4.53
2023-05-19T08:18:08.097Z,4.57
2023-05-19T08:20:34.987Z,4.20
2023-05-19T08:23:01.752Z,5.15
2023-05-19T08:25:28.607Z,5.03
2023-05-19T08:27:55.287Z,3.83
2023-05-19T08:30:22.097Z,3.75
2023-05-19T08:32:49.052Z,3.88
2023-05-19T08:35:15.910Z,2.95
2023-05-19T08:37:43.002Z,3.83
2023-05-19T08:40:15.966Z,2.80
2023-05-19T08:42:42.637Z,1.95
2023-05-19T08:45:09.583Z,2.03
2023-05-19T08:47:36.662Z,2.35
2023-05-19T08:50:08.018Z,2.22
2023-05-19T08:52:52.412Z,2.30
2023-05-19T08:55:58.961Z,2.35
2023-05-19T08:58:28.054Z,2.30
2023-05-19T09:00:57.857Z,2.17
2023-05-19T09:03:26.584Z,2.60
2023-05-19T09:05:53.389Z,2.33
2023-05-19T09:08:20.022Z,2.83
2023-05-19T09:10:46.706Z,1.90
2023-05-19T09:13:13.324Z,2.13
2023-05-19T09:15:41.333Z,2.47
2023-05-19T09:18:13.241Z,2.15
2023-05-19T09:20:41.624Z,2.13
2023-05-19T09:23:13.917Z,2.08
2023-05-19T09:25:49.223Z,2.42
2023-05-19T09:28:31.014Z,2.42
2023-05-19T09:31:04.944Z,2.15
2023-05-19T09:33:34.509Z,2.20
2023-05-19T09:36:01.829Z,2.08
2023-05-19T09:38:28.594Z,2.63
2023-05-19T09:40:59.916Z,2.42
2023-05-19T09:43:30.774Z,2.50
2023-05-19T09:46:03.924Z,2.50
2023-05-19T09:48:30.592Z,2.15
2023-05-19T09:50:58.033Z,2.20
2023-05-19T09:53:25.635Z,3.10
2023-05-19T09:55:59.183Z,2.53
2023-05-19T09:58:35.458Z,2.38
2023-05-19T10:01:04.207Z,2.67
2023-05-19T10:03:33.055Z,2.35
2023-05-19T10:06:01.968Z,2.75
2023-05-19T10:08:30.844Z,2.88
2023-05-19T10:10:58.498Z,2.95
2023-05-19T10:13:26.035Z,3.70
2023-05-19T10:15:59.054Z,3.40
2023-05-19T10:18:27.838Z,2.70
2023-05-19T10:20:55.072Z,2.50
2023-05-19T10:23:22.553Z,2.78
2023-05-19T10:25:52.277Z,3.00
2023-05-19T10:28:23.657Z,2.10
2023-05-19T10:30:53.347Z,1.88
2023-05-19T10:33:24.615Z,1.77
2023-05-19T10:36:21.897Z,2.75
2023-05-19T10:38:56.553Z,1.98
2023-05-19T10:41:29.223Z,2.28
2023-05-19T10:44:17.599Z,2.88
2023-05-19T10:46:44.345Z,1.83
2023-05-19T10:49:19.734Z,2.72
2023-05-19T10:51:46.799Z,2.25
2023-05-19T10:54:16.132Z,2.08
2023-05-19T10:56:48.612Z,2.47
2023-05-19T10:59:32.319Z,2.57
2023-05-19T11:02:07.088Z,2.45
2023-05-19T11:04:50.308Z,2.90
2023-05-19T11:07:22.557Z,2.08
2023-05-19T11:09:51.639Z,2.47
2023-05-19T11:12:24.701Z,2.30
2023-05-19T11:14:55.761Z,3.90
2023-05-19T11:17:25.628Z,2.78
2023-05-19T11:19:57.699Z,2.70
2023-05-19T11:22:28.422Z,2.20
2023-05-19T11:24:55.847Z,2.65
2023-05-19T11:27:35.661Z,2.72
2023-05-19T11:30:14.507Z,2.70
2023-05-19T11:32:44.319Z,2.88
2023-05-19T11:35:11.261Z,2.58
2023-05-19T11:37:38.025Z,2.35
2023-05-19T11:40:09.029Z,2.00
2023-05-19T11:42:37.226Z,2.58
2023-05-19T11:45:05.048Z,2.05
2023-05-19T11:47:45.889Z,2.53
2023-05-19T11:50:19.061Z,2.10
2023-05-19T11:52:47.497Z,2.45
2023-05-19T11:55:23.416Z,2.22
2023-05-19T11:58:03.970Z,2.55
2023-05-19T12:00:39.831Z,2.67
2023-05-19T12:03:08.151Z,2.22
2023-05-19T12:05:42.067Z,2.33
2023-05-19T12:08:10.059Z,2.30
2023-05-19T12:10:37.062Z,2.35
2023-05-19T12:13:06.310Z,2.85
2023-05-19T12:15:33.735Z,2.35
2023-05-19T12:18:02.145Z,2.95
2023-05-19T12:20:32.662Z,2.33
2023-05-19T12:23:00.831Z,2.35
2023-05-19T12:25:28.979Z,2.95
2023-05-19T12:27:59.865Z,1.88
2023-05-19T12:30:28.956Z,2.20
2023-05-19T12:32:57.792Z,2.15
2023-05-19T12:35:27.928Z,2.10
2023-05-19T12:37:54.961Z,1.98
2023-05-19T12:40:22.105Z,2.65
2023-05-19T12:42:52.123Z,2.35
2023-05-19T12:45:22.014Z,2.88
2023-05-19T12:47:49.639Z,2.65
2023-05-19T12:50:16.542Z,2.00
2023-05-19T12:52:48.489Z,2.38
2023-05-19T12:55:16.736Z,2.20
2023-05-19T12:57:51.514Z,2.42
2023-05-19T13:00:20.983Z,2.38
2023-05-19T13:02:58.316Z,2.47
2023-05-19T13:05:25.644Z,2.25
2023-05-19T13:07:56.694Z,2.70
2023-05-19T13:10:23.538Z,2.30
2023-05-19T13:12:50.212Z,2.90
2023-05-19T13:15:16.871Z,2.42
2023-05-19T13:17:43.691Z,2.28
2023-05-19T13:20:10.700Z,2.53
2023-05-19T13:22:37.318Z,2.55
2023-05-19T13:25:04.269Z,2.67
2023-05-19T13:27:30.940Z,2.80
2023-05-19T13:29:57.636Z,2.35
2023-05-19T13:32:24.268Z,2.70
2023-05-19T13:34:50.939Z,2.08
2023-05-19T13:37:17.631Z,2.47
2023-05-19T13:39:44.230Z,2.42
2023-05-19T13:42:10.982Z,2.08
2023-05-19T13:44:37.619Z,1.83
2023-05-19T13:47:04.490Z,2.25
2023-05-19T13:49:31.184Z,2.08
2023-05-19T13:51:58.405Z,2.13
2023-05-19T13:54:25.103Z,2.22
2023-05-19T13:56:51.765Z,2.53
2023-05-19T13:59:18.647Z,2.20
2023-05-19T14:01:45.591Z,2.45
2023-05-19T14:04:12.458Z,1.85
2023-05-19T14:06:39.210Z,2.20
2023-05-19T14:09:06.565Z,1.98
2023-05-19T14:11:33.259Z,2.13
2023-05-19T14:13:59.970Z,2.03
2023-05-19T14:16:28.671Z,2.47
2023-05-19T14:18:55.515Z,2.25
2023-05-19T14:21:22.410Z,2.00
2023-05-19T14:23:58.068Z,2.40
2023-05-19T14:26:25.938Z,2.47
2023-05-19T14:28:57.332Z,2.42
2023-05-19T14:31:24.220Z,2.22
2023-05-19T14:33:52.065Z,2.08
2023-05-19T14:36:19.015Z,2.60
2023-05-19T14:38:45.708Z,2.33
2023-05-19T14:41:12.520Z,2.78
2023-05-19T14:43:41.401Z,2.58
2023-05-19T14:46:08.052Z,2.28
2023-05-19T14:48:35.409Z,2.17
2023-05-19T14:51:02.002Z,2.47
2023-05-19T14:53:28.644Z,2.65
2023-05-19T14:55:55.387Z,2.03
2023-05-19T14:58:29.056Z,2.40
2023-05-19T15:00:58.685Z,2.25
2023-05-19T15:03:25.627Z,2.65
2023-05-19T15:05:52.489Z,2.70
2023-05-19T15:08:19.147Z,2.47
2023-05-19T15:10:49.623Z,2.70
2023-05-19T15:13:17.135Z,2.40
2023-05-19T15:15:43.763Z,2.53
2023-05-19T15:18:11.537Z,2.17
2023-05-19T15:20:38.228Z,2.30
2023-05-19T15:23:04.936Z,2.80
2023-05-19T15:25:31.563Z,2.83
2023-05-19T15:27:58.252Z,2.78
2023-05-19T15:30:24.882Z,2.22
2023-05-19T15:32:52.063Z,2.40
2023-05-19T15:35:18.705Z,2.15
2023-05-19T15:37:45.387Z,2.40
2023-05-19T15:40:12.439Z,2.05
2023-05-19T15:42:39.103Z,2.30
2023-05-19T15:45:08.055Z,2.28
2023-05-19T15:47:34.789Z,2.05
2023-05-19T15:50:01.430Z,2.60
2023-05-19T15:52:28.083Z,2.35
2023-05-19T15:54:59.007Z,2.45
2023-05-19T15:57:25.976Z,3.13
2023-05-19T15:59:52.613Z,2.30
2023-05-19T16:02:19.589Z,2.40
2023-05-19T16:04:46.320Z,2.45
2023-05-19T16:07:12.932Z,2.30
2023-05-19T16:09:39.554Z,2.47
2023-05-19T16:12:06.666Z,2.40
2023-05-19T16:14:36.654Z,3.60
2023-05-19T16:17:11.495Z,2.33
2023-05-19T16:19:40.540Z,2.78
2023-05-19T16:22:07.250Z,2.08
2023-05-19T16:24:33.817Z,2.13
2023-05-19T16:27:00.783Z,2.78
2023-05-19T16:29:27.381Z,2.72
2023-05-19T16:31:54.017Z,2.45
2023-05-19T16:34:20.768Z,2.65
2023-05-19T16:36:47.383Z,2.58
2023-05-19T16:39:13.989Z,2.83
2023-05-19T16:41:40.607Z,2.38
2023-05-19T16:44:07.178Z,2.55
2023-05-19T16:46:34.263Z,2.53
2023-05-19T16:49:01.021Z,2.92
2023-05-19T16:51:27.635Z,3.72
2023-05-19T16:53:54.353Z,2.30
2023-05-19T16:56:21.879Z,2.72
2023-05-19T16:58:49.411Z,2.00
2023-05-19T17:01:17.485Z,2.50
2023-05-19T17:03:44.199Z,2.50
2023-05-19T17:06:10.890Z,2.35
2023-05-19T17:08:37.559Z,2.42
2023-05-19T17:11:06.375Z,2.40
2023-05-19T17:13:36.504Z,2.17
2023-05-19T17:16:03.196Z,2.47
2023-05-19T17:18:33.325Z,1.88
2023-05-19T17:21:03.833Z,2.10
2023-05-19T17:23:34.003Z,2.92
2023-05-19T17:26:01.931Z,2.40
2023-05-19T17:33:59.592Z,1.77
2023-05-19T17:36:26.543Z,2.40
2023-05-19T17:38:53.283Z,1.85
2023-05-19T17:41:20.564Z,2.13
2023-05-19T17:43:47.265Z,2.67
2023-05-19T17:46:14.108Z,2.38
2023-05-19T17:48:41.119Z,2.60
2023-05-19T17:51:08.067Z,2.33
2023-05-19T17:53:35.295Z,2.60
2023-05-19T17:56:04.334Z,2.45
2023-05-19T17:58:31.740Z,2.22
2023-05-19T18:00:58.806Z,3.40
2023-05-19T18:03:26.434Z,2.65
2023-05-19T18:05:53.549Z,2.17
2023-05-19T18:08:20.664Z,2.42
2023-05-19T18:10:49.042Z,2.53
2023-05-19T18:13:15.735Z,2.50
2023-05-19T18:15:42.849Z,2.35
2023-05-19T18:18:11.063Z,2.28
2023-05-19T18:20:39.520Z,2.65
2023-05-19T18:23:06.291Z,2.10
2023-05-19T18:28:13.804Z,2.63
2023-05-19T18:30:40.643Z,2.53
2023-05-19T18:33:07.706Z,2.17
2023-05-19T18:35:38.891Z,2.70
2023-05-19T18:38:05.822Z,2.35
2023-05-19T18:40:33.019Z,2.28
2023-05-19T18:43:00.078Z,2.63
2023-05-19T18:45:26.918Z,2.22
2023-05-19T18:47:53.687Z,2.10
2023-05-19T18:50:20.722Z,2.28
2023-05-19T18:52:47.365Z,2.45
2023-05-19T18:55:14.053Z,2.17
2023-05-19T18:57:41.877Z,2.63
2023-05-19T19:00:09.256Z,2.28
2023-05-19T19:02:39.830Z,2.17
2023-05-19T19:05:09.665Z,2.60
2023-05-19T19:07:44.405Z,3.22
2023-05-19T19:10:11.752Z,2.50
2023-05-19T19:12:39.081Z,2.63
2023-05-19T19:15:06.339Z,2.75
2023-05-19T19:17:33.053Z,2.47
2023-05-19T19:19:59.792Z,2.50
2023-05-19T19:22:26.620Z,2.88
2023-05-19T19:24:53.536Z,3.55
2023-05-19T19:27:21.375Z,2.80
2023-05-19T19:29:48.048Z,2.72
2023-05-19T19:32:15.001Z,2.90
2023-05-19T19:34:41.654Z,2.92
2023-05-19T19:37:08.457Z,2.75
2023-05-19T19:39:35.132Z,2.40
2023-05-19T19:42:01.802Z,2.60
2023-05-19T19:44:28.470Z,2.75
2023-05-19T19:46:55.183Z,2.80
2023-05-19T19:49:21.859Z,2.70
2023-05-19T19:51:48.447Z,2.28
2023-05-19T19:54:15.064Z,3.03
2023-05-19T19:56:41.785Z,2.42
2023-05-19T19:59:08.468Z,2.60
2023-05-19T20:01:35.085Z,2.95
2023-05-19T20:04:02.808Z,3.08
2023-05-19T20:06:29.482Z,3.05
2023-05-19T20:08:56.119Z,3.63
2023-05-19T20:11:24.310Z,3.33
2023-05-19T20:13:51.439Z,3.13
2023-05-19T20:16:18.324Z,3.63
2023-05-19T20:18:45.173Z,3.10
2023-05-19T20:21:11.894Z,2.60
2023-05-19T20:23:40.767Z,3.75
2023-05-19T20:26:12.412Z,3.08
2023-05-19T20:28:40.359Z,3.57
2023-05-19T20:31:07.562Z,2.90
2023-05-19T20:33:34.397Z,3.20
2023-05-19T20:36:01.978Z,2.90
2023-05-19T20:38:28.711Z,2.83
2023-05-19T20:40:55.682Z,3.10
2023-05-19T20:43:22.477Z,2.90
2023-05-19T20:45:49.169Z,3.25
2023-05-19T20:48:16.009Z,3.42
2023-05-19T20:50:42.932Z,3.17
2023-05-19T20:53:09.682Z,2.90
2023-05-19T20:55:38.105Z,3.33
2023-05-19T20:58:04.872Z,2.85
2023-05-19T21:00:31.885Z,3.00
2023-05-19T21:02:58.964Z,2.92
2023-05-19T21:05:25.733Z,3.33
2023-05-19T21:07:52.399Z,3.05
2023-05-19T21:10:19.121Z,3.15
2023-05-19T21:12:46.420Z,3.25
2023-05-19T21:15:13.402Z,3.25
2023-05-19T21:17:40.605Z,3.30
2023-05-19T21:20:07.964Z,3.72
2023-05-19T21:22:36.054Z,3.67
2023-05-19T21:25:02.797Z,3.40
2023-05-19T21:27:29.958Z,3.33
2023-05-19T21:29:56.672Z,3.88
2023-05-19T21:32:23.466Z,4.10
2023-05-19T21:34:50.386Z,3.25
2023-05-19T21:37:17.828Z,3.50
2023-05-19T21:39:45.112Z,3.60
2023-05-19T21:42:11.830Z,3.17
2023-05-19T21:44:38.622Z,3.38
2023-05-19T21:47:05.234Z,3.28
2023-05-19T21:49:31.973Z,4.05
2023-05-19T21:51:58.644Z,4.15
2023-05-19T21:54:25.447Z,3.65
2023-05-19T21:56:52.136Z,3.92
2023-05-19T21:59:19.623Z,3.67
2023-05-19T22:01:46.843Z,4.38
2023-05-19T22:04:16.454Z,3.90
2023-05-19T22:06:43.202Z,3.67
2023-05-19T22:09:10.255Z,3.67
2023-05-19T22:11:37.014Z,3.45
2023-05-19T22:14:03.651Z,3.70
2023-05-19T22:16:31.200Z,3.58
2023-05-19T22:18:58.197Z,4.00
2023-05-19T22:21:24.869Z,3.40
2023-05-19T22:23:52.325Z,3.97
2023-05-19T22:26:19.116Z,3.60
2023-05-19T22:28:45.795Z,3.53
2023-05-19T22:31:12.500Z,3.97
2023-05-19T22:33:39.125Z,3.95
2023-05-19T22:36:05.997Z,4.45
2023-05-19T22:38:32.924Z,4.10
2023-05-19T22:40:59.585Z,3.50
2023-05-19T22:43:26.298Z,3.55
2023-05-19T22:45:53.039Z,3.03
2023-05-19T22:48:19.778Z,3.50
2023-05-19T22:50:46.536Z,3.03
2023-05-19T22:53:13.233Z,3.03
2023-05-19T22:55:39.934Z,2.95
2023-05-19T22:58:06.747Z,3.00
2023-05-19T23:00:33.433Z,3.13
2023-05-19T23:03:00.217Z,3.38
2023-05-19T23:05:26.934Z,3.45
2023-05-19T23:07:53.766Z,3.30
2023-05-19T23:10:20.437Z,3.40
2023-05-19T23:12:47.109Z,2.72
2023-05-19T23:15:13.762Z,2.97
2023-05-19T23:17:40.598Z,2.88
2023-05-19T23:20:07.918Z,2.90
2023-05-19T23:22:34.678Z,2.70
2023-05-19T23:25:05.726Z,2.72
2023-05-19T23:27:32.459Z,2.80
2023-05-19T23:29:59.169Z,2.75
2023-05-19T23:32:25.905Z,2.67
2023-05-19T23:34:52.665Z,3.28
2023-05-19T23:37:19.326Z,3.00
2023-05-19T23:39:46.122Z,2.92
2023-05-19T23:42:13.220Z,2.35
2023-05-19T23:44:39.850Z,2.80
2023-05-19T23:47:06.955Z,2.85
2023-05-19T23:49:33.733Z,2.67
2023-05-19T23:52:00.473Z,2.35
2023-05-19T23:54:27.147Z,2.90
2023-05-19T23:56:55.828Z,2.90
2023-05-19T23:59:22.705Z,2.22
